Henrique Queiroz

Scout - Santos
5 Dez 2027
Sonntag
Verarbeitung

Persönlichkeit

Anpassungsfähigkeit (3) Ehrgeiz (5) Kontroverse (11) Loyalität (19) Druck (2) Professionalität (14) Fairness (9) Temperament (15)

Profil

Trainerstil Demokratisch
Lizenz Nationale B
Entschlossenheit 11
Menschenführung 12
Motivation 12
Disziplin 8
Arbeitszufriedenheit
94%
Ermüdung
0%
Rolle Scout
Gehalt 95.8K p/W
Vertrag 14.03.2030

Leistung

Verhalten Gut
Trainingseffektivität
40%
Spielerentwicklung
40%
Verletzungsprävention
60%
Taktische Umsetzung
25%

Letzte Ereignisse

Nahm an einer Scouting-Besprechung teil jetzt
Nahm an einer Scouting-Besprechung teil jetzt
Spieler begutachtet jetzt
Legte dem Vorstand ein Dossier vor jetzt
Nahm an einer Scouting-Besprechung teil 7T her
Nahm an einer Scouting-Besprechung teil 7T her
Nahm an einer Scouting-Besprechung teil 14T her
Nahm an einer Scouting-Besprechung teil 14T her

Aktuell beobachtet

198
Spieler Verein Status Fähigkeit Vertrauen Beobachtet Zuletzt beobachtet Letzte Stimme
Eduardo Sasha Bragantino Verloren 122 / 118 90% 1 02.12.2027 -
André Wolverhampton Aktiv 152 / 147 40% 11 01.12.2027 -
Gustavo Martins Grêmio Aktiv 133 / 136 40% 2 01.12.2027 -
Isidro Pitta Bragantino Bericht bereit 130 / 122 90% 1 01.12.2027 -
Renan Lodi Atlético Mineiro Aktiv 138 / 132 40% 1 01.12.2027 -
Igor Burnley Aktiv 143 / 149 40% 10 14.06.2027 -
Yehor Yarmoliuk Brentford Aktiv 151 / 152 40% 1 14.06.2027 -
Dodo Fiorentina Aktiv 149 / 154 40% 3 29.05.2027 -
Ethan Galbraith Swansea City Aktiv 131 / 138 40% 3 29.05.2027 -
Marcus Edwards Burnley Aktiv 139 / 139 40% 1 28.05.2027 -
Kwadwo Baah Watford Aktiv 128 / 134 40% 1 28.05.2027 -
Léo Scienza Southampton Aktiv 138 / 137 40% 6 27.05.2027 -
Giovane Napoli Aktiv 135 / 135 40% 8 27.05.2027 -
Exequiel Palacios Ipswich Town Aktiv 158 / 164 40% 8 26.05.2027 -
Marquinhos Spartak Moscow Aktiv 135 / 139 40% 2 26.05.2027 -
Gabriel Sara Galatasaray Aktiv 146 / 134 40% 4 24.05.2027 -
Welington Southampton Aktiv 128 / 134 40% 8 24.05.2027 -
Jacob Greaves Ipswich Town Aktiv 140 / 131 40% 2 24.05.2027 -
Harrison Burrows Sheffield United Aktiv 128 / 126 40% 4 23.05.2027 -
Harry Clarke Preston Aktiv 131 / 133 40% 2 23.05.2027 -
Saša Lukić Ipswich Town Aktiv 142 / 134 40% 2 23.05.2027 -
Quinten Timber Crystal Palace Aktiv 151 / 148 40% 1 22.05.2027 -
Carlos Alcaraz Everton Aktiv 146 / 143 40% 4 21.05.2027 -
Will Lankshear Middlesbrough Aktiv 126 / 125 40% 2 20.05.2027 -
Tyrese Campbell Sheffield United Aktiv 129 / 123 40% 6 20.05.2027 -
Nordi Mukiele Sunderland Aktiv 144 / 150 40% 1 18.05.2027 -
Aune Heggebø West Bromwich Albion Aktiv 128 / 129 40% 2 17.05.2027 -
Habib Diarra Sunderland Aktiv 142 / 142 40% 3 17.05.2027 -
Giacomo Raspadori Atalanta Aktiv 148 / 138 40% 4 17.05.2027 -
Noah Sadiki Sunderland Aktiv 141 / 145 40% 3 17.05.2027 -
Jimmy Dunne Queens Park Rangers Aktiv 126 / 129 40% 1 17.05.2027 -
Tom Cannon Sheffield United Aktiv 132 / 129 40% 1 17.05.2027 -
Rodrigo Muniz Fulham Aktiv 142 / 136 40% 4 15.05.2027 -
Patrick Agyemang Derby County Aktiv 122 / 126 40% 2 12.05.2027 -
Charles De Ketelaere Atalanta Aktiv 156 / 160 40% 2 12.05.2027 -
Luís Henrique Inter Aktiv 144 / 139 40% 5 11.05.2027 -
Pedrinho Shakhtar Aktiv 144 / 125 40% 3 11.05.2027 -
Brooke Norton-Cuffy Hull City Aktiv 140 / 130 40% 2 10.05.2027 -
Sorba Thomas Stoke City Aktiv 127 / 130 40% 1 10.05.2027 -
Brennan Johnson Everton Aktiv 148 / 151 40% 5 07.05.2027 -
Gabriel Strefezza Palermo Aktiv 132 / 133 40% 2 07.05.2027 -
Ilyas Ansah Hull City Aktiv 132 / 137 40% 4 06.05.2027 -
Iwan Morgan Grimsby Town Aktiv 108 / 120 40% 2 06.05.2027 -
Fabrizio Cavegn Bristol Rovers Aktiv 115 / 118 40% 2 06.05.2027 -
Chemsdine Talbi Sunderland Aktiv 141 / 147 40% 1 06.05.2027 -
Dango Ouattara Brentford Aktiv 142 / 151 40% 2 04.05.2027 -
Guille Rosas Gijón Aktiv 139 / 141 40% 1 04.05.2027 -
Žan Vipotnik Swansea City Aktiv 126 / 131 40% 3 02.05.2027 -
Éderson Atalanta Aktiv 162 / 155 40% 1 29.04.2027 -
Malcom Al Jazira Aktiv 149 / 152 40% 5 27.04.2027 -
Milan van Ewijk Coventry City Aktiv 131 / 126 40% 2 27.04.2027 -
Wilson Odobert Brighton Aktiv 139 / 139 40% 1 25.04.2027 -
Richarlison Everton Aktiv 146 / 136 40% 2 24.04.2027 -
Ethan Ampadu Leeds United Aktiv 144 / 137 40% 1 23.04.2027 -
Murillo Nottingham Forest Aktiv 154 / 156 40% 1 23.04.2027 -
Carlos Augusto Inter Aktiv 149 / 147 40% 2 22.04.2027 -
Alex Scott Bournemouth Aktiv 152 / 157 40% 1 22.04.2027 -
João Gomes Aston Villa Aktiv 138 / 143 40% 2 21.04.2027 -
Stephen Eustáquio Swansea City Aktiv 134 / 138 40% 1 14.04.2027 -
Sunusi Ibrahim Cotonsport Garoua Aktiv 113 / 125 40% 1 14.04.2027 -
Haissem Hassan Bloemfontein Celtic Aktiv 131 / 145 40% 2 12.04.2027 -
Yanis Begraoui Estoril Praia Aktiv 139 / 142 40% 9 09.04.2027 -
Henrique Araújo Casa Pia Aktiv 122 / 114 40% 1 09.04.2027 -
Guilherme Neiva AVS Aktiv 109 / 112 40% 2 08.04.2027 -
Max Svensson Penafiel Aktiv 114 / 105 40% 2 08.04.2027 -
Francisco Moura Porto Aktiv 141 / 138 40% 2 07.04.2027 -
Rodrigo Pinheiro Famalicao Aktiv 127 / 131 40% 5 05.04.2027 -
Adrià Altimira Deportivo La Coruña Aktiv 131 / 133 40% 1 05.04.2027 -
Tim Iroegbunam Hull City Aktiv 134 / 137 40% 1 04.04.2027 -
Kauã Elias Club Brugge Aktiv 137 / 133 40% 5 03.04.2027 -
Jalen Blesa Rio Ave Aktiv 117 / 120 40% 3 03.04.2027 -
Sorriso Famalicao Aktiv 132 / 120 40% 3 01.04.2027 -
Martín Tejón Maritimo Aktiv 120 / 126 40% 2 01.04.2027 -
Rafik Guitane Estoril Praia Aktiv 137 / 132 40% 3 01.04.2027 -
Wendel Silva Santa Clara Aktiv 118 / 122 40% 1 01.04.2027 -
Gabri Veiga Porto Aktiv 156 / 150 40% 3 29.03.2027 -
Dara O'Shea Ipswich Town Aktiv 137 / 133 40% 3 29.03.2027 -
Liziero Nacional Aktiv 124 / 135 40% 3 27.03.2027 -
Javi Sánchez Arouca Aktiv 133 / 137 40% 1 27.03.2027 -
Borja Sainz Porto Aktiv 150 / 140 40% 7 26.03.2027 -
Henrique Silva Santa Clara Aktiv 106 / 123 40% 1 26.03.2027 -
Issa Kaboré Wrexham Aktiv 132 / 131 40% 1 26.03.2027 -
Sergi Altimira Sporting CP Aktiv 136 / 132 40% 1 26.03.2027 -
Mario Dorgeles Braga Aktiv 133 / 132 40% 5 24.03.2027 -
Marquinhos APOEL Aktiv 125 / 132 40% 5 23.03.2027 -
Samuel Dahl Benfica Aktiv 141 / 141 40% 1 21.03.2027 -
Pepê Porto Aktiv 148 / 142 40% 8 20.03.2027 -
Gianluca Prestianni Benfica Aktiv 134 / 137 40% 2 18.03.2027 -
Dinis Pinto Moreirense Aktiv 127 / 133 40% 3 18.03.2027 -
Roberto Fernández Braga Aktiv 141 / 138 40% 12 16.03.2027 -
Víctor Gómez Braga Aktiv 142 / 130 40% 2 16.03.2027 -
Gabriel Tigrão Penafiel Aktiv 104 / 94 40% 3 16.03.2027 -
André Lacximicant Estoril Praia Aktiv 115 / 108 40% 3 16.03.2027 -
Enzo Barrenechea Benfica Aktiv 145 / 156 40% 4 14.03.2027 -
Galeno Benfica Aktiv 147 / 147 40% 5 14.03.2027 -
Jordan Holsgrove Estoril Praia Aktiv 130 / 138 40% 4 13.03.2027 -
Ronald Swansea City Aktiv 126 / 131 40% 2 12.03.2027 -
Pau Víctor Braga Aktiv 138 / 135 40% 12 11.03.2027 -
Dylan Nandín Arouca Aktiv 116 / 110 40% 2 11.03.2027 -
Marcelo Allende Mamelodi Sundowns Aktiv 133 / 124 40% 2 11.03.2027 -
Lucas Ventura Hapoel Beer Sheva Aktiv 127 / 120 40% 1 09.03.2027 -
Gustaf Lagerbielke Braga Aktiv 138 / 139 40% 2 08.03.2027 -
Dodi Lukébakio Benfica Aktiv 147 / 153 40% 11 03.03.2027 -
Santi García Gil Vicente Aktiv 133 / 134 40% 2 02.03.2027 -
Zeno Debast Sporting CP Aktiv 139 / 144 40% 1 01.03.2027 -
Gustavo Silva Vitoria Guimaraes Aktiv 126 / 119 40% 5 28.02.2027 -
Ianis Stoica Estrela da Amadora Aktiv 120 / 111 40% 1 28.02.2027 -
Tamble Monteiro Rio Ave Aktiv 118 / 119 40% 4 27.02.2027 -
Mathias De Amorim Famalicao Aktiv 131 / 136 40% 3 25.02.2027 -
Vitinho Botafogo Aktiv 137 / 124 40% 3 20.02.2027 -
Ângelo Al-Nassr Aktiv 138 / 148 40% 2 20.02.2027 -
Jhon Arias Palmeiras Aktiv 139 / 140 40% 6 15.02.2027 -
Rivaldo Mouscron Aktiv 130 / 131 40% 2 15.02.2027 -
Sidney Lima Santa Clara Aktiv 131 / 120 40% 1 14.02.2027 -
Carlos Rotondi Cruz Azul Aktiv 133 / 145 40% 1 13.02.2027 -
Guilherme Arana Fluminense Aktiv 140 / 129 40% 4 11.02.2027 -
Leandrinho Sharjah Aktiv 110 / 125 40% 1 11.02.2027 -
Matheus Davó Maccabi Netanya Aktiv 117 / 111 40% 1 10.02.2027 -
Diego Lainez Tigres Aktiv 134 / 142 40% 1 09.02.2027 -
Rafael Lobato Rio Ave Aktiv 111 / 121 40% 1 04.02.2027 -
Luciano Juba Bahia Aktiv 137 / 139 40% 1 02.02.2027 -
Christian Krasnodar Aktiv 129 / 133 40% 1 02.02.2027 -
Gustavo Pereira Crawley Town Aktiv 87 / 93 40% 1 01.02.2027 -
Rubens Dinamo Moscow Aktiv 130 / 145 40% 1 01.02.2027 -
Oussama Idrissi Pachuca Aktiv 143 / 137 40% 1 01.02.2027 -
Gabriel Novaes Estoril Praia Aktiv 108 / 115 40% 3 26.01.2027 -
Lincoln Spartak Subotica Aktiv 104 / 99 40% 1 26.01.2027 -
José Manuel López Palmeiras Aktiv 138 / 138 40% 5 18.01.2027 -
Florián Monzón Atlas Aktiv 126 / 119 40% 1 16.01.2027 -
Vitinho Internacional Aktiv 127 / 119 40% 2 07.01.2027 -
Juan Cruz de los Santos Pacos de Ferreira Aktiv 123 / 116 40% 2 04.01.2027 -
Geny Sporting CP Aktiv 142 / 142 40% 5 30.11.2026 -
Caio Alexandre Bahia Aktiv 139 / 130 40% 5 28.11.2026 -
Vanderson Monaco Aktiv 144 / 150 40% 4 27.11.2026 Beobachten
Samuel Lino Flamengo Aktiv 137 / 135 40% 4 27.11.2026 -
Pedro Flamengo Aktiv 140 / 140 40% 4 21.11.2026 -
Julián Quiñones Al-Qadisiyah Aktiv 145 / 155 40% 1 19.11.2026 -
Rodrigo Garro Corinthians Aktiv 134 / 133 40% 7 17.11.2026 -
Lucas Paquetá Flamengo Aktiv 144 / 128 40% 5 14.11.2026 -
Gonzalo Fulham Aktiv 145 / 155 40% 4 10.11.2026 -
Thalys Almería Aktiv 121 / 123 40% 1 09.11.2026 -
Gianluca Scamacca Atalanta Aktiv 147 / 146 40% 6 07.11.2026 -
Breel Embolo Ankaragucu Aktiv 144 / 142 40% 2 01.11.2026 -
Martinelli Fluminense Aktiv 139 / 133 40% 3 30.10.2026 -
Rodrigo Zalazar Sporting CP Aktiv 152 / 139 40% 4 30.10.2026 -
Agustín Ruberto River Plate Aktiv 116 / 123 40% 1 27.10.2026 -
Emiliano Buendía Aston Villa Aktiv 148 / 139 40% 1 26.10.2026 -
Joshua Zirkzee Manchester United Aktiv 147 / 147 40% 2 25.10.2026 -
Oumar Camara Vitoria Guimaraes Aktiv 120 / 121 40% 1 20.10.2026 -
Aníbal Moreno River Plate Aktiv 134 / 123 40% 1 19.10.2026 -
Lautaro Millán Independiente Aktiv 126 / 134 40% 1 17.10.2026 -
Leandro Barreiro Benfica Aktiv 138 / 141 40% 1 16.10.2026 -
Vinícius Lopes Santa Clara Aktiv 120 / 114 40% 1 16.10.2026 -
Alan Varela Porto Aktiv 142 / 134 40% 3 13.10.2026 -
Wesley AS Roma Aktiv 151 / 149 40% 2 04.10.2026 -
Caio Henrique Ajax Aktiv 136 / 141 40% 1 04.10.2026 -
Gérson Cruzeiro Verloren 141 / 144 40% 1 28.09.2026 -
Noah Okafor Leeds United Aktiv 137 / 146 40% 1 27.09.2026 -
Ricardo Mathias Al-Ahli Aktiv 120 / 120 40% 1 26.09.2026 -
Tomás Araújo Benfica Aktiv 145 / 138 40% 2 21.09.2026 -
Georginio Rutter Olympique Lyonnais Aktiv 146 / 142 40% 2 21.09.2026 -
Ferran Torres Paris Saint-Germain Aktiv 164 / 155 40% 1 21.09.2026 -
Bright Arrey-Mbi Braga Aktiv 134 / 124 40% 1 21.09.2026 -
Léo Jacó Santa Clara Aktiv 99 / 107 40% 1 19.09.2026 -
Igor Paixão Olympique de Marseille Aktiv 146 / 140 40% 2 16.09.2026 -
Tammy Abraham Aston Villa Aktiv 144 / 147 40% 4 16.09.2026 -
Barış Alper Yılmaz Galatasaray Aktiv 144 / 137 40% 1 16.09.2026 -
Eddie Nketiah Crystal Palace Aktiv 140 / 133 40% 4 14.09.2026 -
Dominic Solanke Tottenham Aktiv 145 / 148 40% 2 13.09.2026 -
Hwang In-Beom Porto Aktiv 142 / 154 40% 1 11.09.2026 -
Yoshan Valois Lanús Aktiv 118 / 126 40% 1 10.09.2026 -
Danilo Botafogo Aktiv 141 / 139 40% 2 09.09.2026 -
Youssef En-Nesyri Al-Ittihad Aktiv 146 / 134 40% 2 08.09.2026 -
Liam Delap Nottingham Forest Aktiv 144 / 153 40% 1 06.09.2026 -
Nicolò Zaniolo Udinese Aktiv 142 / 147 40% 1 06.09.2026 -
Nicolás de la Cruz Flamengo Aktiv 139 / 146 40% 1 01.09.2026 -
Matías Fernández-Pardo Newcastle United Aktiv 136 / 146 40% 1 29.08.2026 -
Pablo Rosario Porto Aktiv 140 / 143 40% 1 29.08.2026 -
Iván Fresneda Sporting CP Aktiv 132 / 151 40% 1 25.08.2026 -
Robert FC Copenhagen Aktiv 123 / 131 40% 1 25.08.2026 -
Sindre Walle Egeli Ipswich Town Aktiv 122 / 134 40% 1 24.08.2026 -
Taty Castellanos West Ham United Aktiv 145 / 146 40% 1 23.08.2026 -
William Gomes Porto Aktiv 134 / 140 40% 1 22.08.2026 -
Alberto Costa Porto Aktiv 141 / 144 40% 1 22.08.2026 -
Jakub Kamiński Benfica Aktiv 136 / 126 40% 1 15.08.2026 -
Yarlen Botafogo Aktiv 106 / 111 30% 1 / 1m 12.08.2026 -
Iacovelli Paysandu Aktiv 106 / 106 52% 1 / 1m 12.08.2026 -
Delis Vargas Paysandu Aktiv 108 / 108 52% 1 / 1m 12.08.2026 -
Walter Mirassol Aktiv 132 / 132 30% 1 / 1m 12.08.2026 -
Nicolas Criciuma Aktiv 123 / 123 42% 1 / 1m 12.08.2026 -
Aírton Criciuma Aktiv 121 / 121 30% 1 / 1m 12.08.2026 -
Victor Froholdt Porto Aktiv 152 / 149 40% 1 09.08.2026 -
Yoane Wissa Newcastle United Aktiv 138 / 133 40% 1 09.08.2026 -
Juan Pereyra Veracruz Verloren 159 / 174 40% 1 08.08.2026 -
Jonathan Dubasin Osasuna Aktiv 139 / 138 40% 1 03.08.2026 -
Jorge De Frutos Rayo Vallecano Aktiv 145 / 149 40% 1 03.08.2026 -
Rômulo RB Leipzig Aktiv 140 / 142 40% 1 02.08.2026 -
Wendel Zenit Aktiv 140 / 133 40% 1 02.08.2026 -